Time;durP1;ratioP1;P1;durP2;ratioP2;P2;SDS_P1;SDS_P2;PMS_P1;PMS_P2;Temp;Humidity;BMP_temperature;BMP_pressure;BME280_temperature;BME280_humidity;BME280_pressure;Samples;Min_cycle;Max_cycle;Signal;HPM_P1;HPM_P2
2021/05/05 00:01:09;;;;;;;1.67;1.27;;;4.20;99.90;;;;;;5079619;28;20196;-73
2021/05/05 00:03:35;;;;;;;1.40;1.30;;;4.20;99.90;;;;;;5080934;28;20729;-73
2021/05/05 00:06:02;;;;;;;1.92;1.50;;;4.20;99.90;;;;;;5080081;28;20219;-73
2021/05/05 00:08:28;;;;;;;1.83;1.63;;;4.20;99.90;;;;;;5083221;28;20192;-73
2021/05/05 00:10:54;;;;;;;1.77;1.27;;;4.20;99.90;;;;;;5062584;28;20206;-73
2021/05/05 00:13:20;;;;;;;1.27;1.17;;;4.20;99.90;;;;;;5084929;28;20197;-73
2021/05/05 00:15:46;;;;;;;1.60;1.35;;;4.20;99.90;;;;;;5082281;28;20564;-72
2021/05/05 00:18:12;;;;;;;1.52;1.40;;;4.30;99.90;;;;;;5069051;28;20207;-73
2021/05/05 00:20:38;;;;;;;1.50;1.40;;;4.20;99.90;;;;;;5066144;28;20268;-73
2021/05/05 00:23:04;;;;;;;1.52;1.17;;;4.20;99.90;;;;;;5069325;28;20201;-72
2021/05/05 00:25:30;;;;;;;1.52;1.40;;;4.20;99.90;;;;;;5083081;28;20184;-74
2021/05/05 00:27:56;;;;;;;1.52;1.20;;;4.20;99.90;;;;;;5078352;28;20560;-73
2021/05/05 00:30:23;;;;;;;1.38;1.20;;;4.20;99.90;;;;;;5080016;28;20706;-73
2021/05/05 00:32:50;;;;;;;1.55;1.35;;;4.20;99.90;;;;;;5083333;28;20685;-73
2021/05/05 00:35:16;;;;;;;1.30;1.20;;;4.10;99.90;;;;;;5079895;28;20192;-73
2021/05/05 00:37:42;;;;;;;1.35;1.20;;;4.10;99.90;;;;;;5067689;28;20200;-73
2021/05/05 00:40:10;;;;;;;1.30;1.20;;;4.10;99.90;;;;;;5082822;28;20205;-73
2021/05/05 00:42:36;;;;;;;1.27;1.17;;;4.10;99.90;;;;;;5084680;28;20278;-73
2021/05/05 00:45:05;;;;;;;1.60;1.40;;;4.10;99.90;;;;;;5068397;28;20200;-73
2021/05/05 00:47:32;;;;;;;1.15;1.05;;;4.10;99.90;;;;;;5081354;28;20211;-73
2021/05/05 00:49:58;;;;;;;1.35;1.25;;;4.10;99.90;;;;;;5083165;28;20199;-73
2021/05/05 00:52:25;;;;;;;3.28;1.30;;;4.10;99.90;;;;;;5083354;28;20197;-73
2021/05/05 00:54:51;;;;;;;1.38;1.27;;;4.10;99.90;;;;;;5080339;28;20227;-73
2021/05/05 00:57:18;;;;;;;2.63;1.40;;;4.10;99.90;;;;;;5065908;28;20193;-73
2021/05/05 00:59:44;;;;;;;2.38;1.70;;;4.00;99.90;;;;;;5081382;28;20201;-73
2021/05/05 01:02:09;;;;;;;2.97;1.80;;;3.90;99.90;;;;;;5081787;28;20563;-73
2021/05/05 01:04:35;;;;;;;1.77;1.40;;;3.90;99.90;;;;;;5050672;23;20278;-71
2021/05/05 01:07:01;;;;;;;2.15;1.70;;;3.80;99.90;;;;;;5066420;28;20664;-71
2021/05/05 01:09:27;;;;;;;1.60;1.50;;;3.80;99.90;;;;;;5055785;28;20275;-71
2021/05/05 01:11:54;;;;;;;3.00;1.75;;;3.70;99.90;;;;;;5053231;28;20314;-71
2021/05/05 01:14:21;;;;;;;2.47;1.85;;;3.60;99.90;;;;;;5057129;28;20193;-71
2021/05/05 01:16:49;;;;;;;1.85;1.65;;;3.60;99.90;;;;;;5062252;28;20575;-70
2021/05/05 01:19:14;;;;;;;1.90;1.55;;;3.60;99.90;;;;;;5052748;28;20185;-70
2021/05/05 01:21:40;;;;;;;2.38;1.90;;;3.60;99.90;;;;;;5050835;28;20652;-70
2021/05/05 01:24:06;;;;;;;2.03;1.67;;;3.50;99.90;;;;;;5058994;28;20662;-70
2021/05/05 01:26:32;;;;;;;1.98;1.50;;;3.50;99.90;;;;;;5059012;28;20206;-70
2021/05/05 01:29:00;;;;;;;1.90;1.50;;;3.40;99.90;;;;;;5055980;28;20213;-70
2021/05/05 01:31:27;;;;;;;2.17;1.63;;;3.40;99.90;;;;;;5056122;28;20545;-70
2021/05/05 01:33:54;;;;;;;2.35;1.70;;;3.40;99.90;;;;;;5057421;28;20207;-70
2021/05/05 01:36:21;;;;;;;2.20;1.80;;;3.30;99.90;;;;;;5064444;28;20201;-70
2021/05/05 01:38:48;;;;;;;3.15;1.70;;;3.30;99.90;;;;;;5045876;28;20200;-70
2021/05/05 01:41:15;;;;;;;5.15;1.63;;;3.30;99.90;;;;;;5063914;28;20252;-71
2021/05/05 01:43:41;;;;;;;4.70;1.80;;;3.30;99.90;;;;;;5060991;28;20197;-70
2021/05/05 01:46:07;;;;;;;2.20;1.83;;;3.30;99.90;;;;;;5064318;28;20833;-71
2021/05/05 01:48:33;;;;;;;2.75;1.80;;;3.30;99.90;;;;;;5047047;28;21029;-70
2021/05/05 01:50:58;;;;;;;1.42;1.30;;;3.20;99.90;;;;;;5063343;28;20188;-70
2021/05/05 01:53:24;;;;;;;6.53;1.60;;;3.30;99.90;;;;;;5053071;28;20288;-71
2021/05/05 01:55:50;;;;;;;2.08;1.50;;;3.30;99.90;;;;;;5048201;28;20633;-71
2021/05/05 01:58:16;;;;;;;1.90;1.70;;;3.30;99.90;;;;;;5054719;28;20205;-71
2021/05/05 02:00:42;;;;;;;1.73;1.55;;;3.20;99.90;;;;;;5052319;28;20216;-71
2021/05/05 02:03:09;;;;;;;1.98;1.50;;;3.20;99.90;;;;;;5060459;28;20196;-70
2021/05/05 02:05:36;;;;;;;1.80;1.55;;;3.30;99.90;;;;;;5056671;28;20249;-71
2021/05/05 02:08:02;;;;;;;1.50;1.35;;;3.30;99.90;;;;;;5056804;28;20193;-69
2021/05/05 02:10:28;;;;;;;1.85;1.60;;;3.30;99.90;;;;;;5054780;28;20910;-71
2021/05/05 02:12:54;;;;;;;2.97;1.70;;;3.30;99.90;;;;;;5059324;28;20205;-70
2021/05/05 02:15:21;;;;;;;2.28;1.67;;;3.40;99.90;;;;;;5054428;28;20196;-70
2021/05/05 02:17:48;;;;;;;2.05;1.45;;;3.30;99.90;;;;;;5058978;28;20192;-70
2021/05/05 02:20:17;;;;;;;1.73;1.38;;;3.40;99.90;;;;;;5062308;28;20523;-72
2021/05/05 02:22:43;;;;;;;2.30;1.40;;;3.30;99.90;;;;;;5061359;28;20208;-71
2021/05/05 02:25:10;;;;;;;1.77;1.52;;;3.30;99.90;;;;;;5057158;28;20197;-70
2021/05/05 02:27:37;;;;;;;1.65;1.55;;;3.40;99.90;;;;;;5055110;28;20201;-70
2021/05/05 02:30:07;;;;;;;1.50;1.40;;;3.40;99.90;;;;;;5049215;28;20533;-72
2021/05/05 02:32:35;;;;;;;1.80;1.50;;;3.40;99.90;;;;;;5045962;28;20739;-71
2021/05/05 02:35:00;;;;;;;1.40;1.30;;;3.40;99.90;;;;;;5051432;28;20560;-71
2021/05/05 02:37:26;;;;;;;1.52;1.40;;;3.30;99.90;;;;;;5050178;28;20189;-69
2021/05/05 02:39:52;;;;;;;1.35;1.23;;;3.30;99.90;;;;;;5044964;28;20311;-72
2021/05/05 02:42:19;;;;;;;1.63;1.40;;;3.40;99.90;;;;;;5059789;28;20197;-70
2021/05/05 02:44:48;;;;;;;1.50;1.35;;;3.30;99.90;;;;;;5062891;28;20204;-70
2021/05/05 02:47:14;;;;;;;2.03;1.48;;;3.30;99.90;;;;;;5052987;28;20201;-71
2021/05/05 02:49:40;;;;;;;2.83;1.40;;;3.20;99.90;;;;;;5052445;28;20218;-70
2021/05/05 02:52:06;;;;;;;1.42;1.30;;;3.20;99.90;;;;;;5049184;28;21766;-70
2021/05/05 02:54:32;;;;;;;1.95;1.60;;;3.20;99.90;;;;;;5038798;28;20547;-70
2021/05/05 02:56:58;;;;;;;1.83;1.30;;;3.10;99.90;;;;;;5048209;28;20204;-69
2021/05/05 02:59:25;;;;;;;2.67;1.60;;;3.10;99.90;;;;;;5043046;28;20205;-70
2021/05/05 03:01:54;;;;;;;2.10;1.40;;;3.20;99.90;;;;;;5057927;28;20192;-68
2021/05/05 03:04:21;;;;;;;1.38;1.27;;;3.10;99.90;;;;;;5045995;28;20223;-69
2021/05/05 03:06:46;;;;;;;1.65;1.38;;;3.00;99.90;;;;;;5060585;28;20248;-68
2021/05/05 03:09:13;;;;;;;2.30;1.40;;;3.10;99.90;;;;;;5047071;28;20250;-69
2021/05/05 03:11:39;;;;;;;1.75;1.20;;;3.00;99.90;;;;;;5057841;28;20189;-70
2021/05/05 03:14:04;;;;;;;2.63;1.38;;;3.00;99.90;;;;;;5052061;28;20193;-71
2021/05/05 03:16:30;;;;;;;1.48;1.38;;;3.00;99.90;;;;;;5029854;28;20202;-69
2021/05/05 03:18:56;;;;;;;1.85;1.33;;;3.00;99.90;;;;;;5036938;28;20205;-70
2021/05/05 03:21:22;;;;;;;1.15;1.05;;;3.00;99.90;;;;;;5059605;28;20194;-70
2021/05/05 03:23:48;;;;;;;1.67;1.40;;;3.00;99.90;;;;;;5054054;28;20200;-70
2021/05/05 03:26:13;;;;;;;1.30;1.20;;;3.00;99.90;;;;;;5042796;28;20192;-70
2021/05/05 03:28:39;;;;;;;1.70;1.50;;;2.90;99.90;;;;;;5054275;28;20213;-71
2021/05/05 03:31:05;;;;;;;1.50;1.40;;;2.90;99.90;;;;;;5049065;28;20193;-70
2021/05/05 03:33:30;;;;;;;1.73;1.40;;;2.90;99.90;;;;;;5051488;28;20193;-70
2021/05/05 03:35:56;;;;;;;1.48;1.38;;;2.90;99.90;;;;;;5052523;28;20205;-70
2021/05/05 03:38:22;;;;;;;1.40;1.30;;;2.90;99.90;;;;;;5061098;28;20197;-70
2021/05/05 03:40:48;;;;;;;1.50;1.40;;;2.90;99.90;;;;;;5054822;28;20197;-70
2021/05/05 03:43:14;;;;;;;1.50;1.40;;;2.90;99.90;;;;;;5042512;28;20223;-70
2021/05/05 03:45:39;;;;;;;1.45;1.35;;;3.00;99.90;;;;;;5062393;28;20202;-70
2021/05/05 03:48:06;;;;;;;1.77;1.40;;;3.00;99.90;;;;;;5060994;28;20251;-72
2021/05/05 03:50:34;;;;;;;1.67;1.45;;;3.00;99.90;;;;;;5048673;28;20204;-70
2021/05/05 03:53:00;;;;;;;1.10;1.00;;;3.00;99.90;;;;;;5063218;28;20197;-69
2021/05/05 03:55:26;;;;;;;1.63;1.30;;;3.00;99.90;;;;;;5061980;28;20218;-71
2021/05/05 03:57:52;;;;;;;1.67;1.15;;;3.00;99.90;;;;;;5062270;28;20192;-72
2021/05/05 04:00:18;;;;;;;1.15;1.05;;;3.10;99.90;;;;;;5046154;28;20240;-70
2021/05/05 04:02:44;;;;;;;1.30;1.20;;;3.10;99.90;;;;;;5063527;28;20268;-70
2021/05/05 04:05:10;;;;;;;1.40;1.30;;;3.10;99.90;;;;;;5063100;28;20339;-70
2021/05/05 04:07:36;;;;;;;1.13;1.02;;;3.10;99.90;;;;;;5052579;28;20574;-71
2021/05/05 04:10:04;;;;;;;1.45;1.30;;;3.10;99.90;;;;;;5039128;28;20208;-69
2021/05/05 04:12:29;;;;;;;1.02;1.00;;;3.20;99.90;;;;;;5053173;28;20193;-70
2021/05/05 04:14:56;;;;;;;1.00;0.95;;;3.20;99.90;;;;;;5045743;28;20202;-72
2021/05/05 04:17:23;;;;;;;1.10;1.00;;;3.20;99.90;;;;;;5063022;28;20291;-71
2021/05/05 04:19:49;;;;;;;1.10;0.93;;;3.30;99.90;;;;;;5061846;28;20193;-70
2021/05/05 04:22:15;;;;;;;2.10;1.00;;;3.30;99.90;;;;;;5060277;28;20213;-70
2021/05/05 04:24:41;;;;;;;1.20;1.10;;;3.30;99.90;;;;;;5068787;28;20212;-70
2021/05/05 04:27:07;;;;;;;1.10;1.00;;;3.30;99.90;;;;;;5061537;28;20201;-70
2021/05/05 04:29:32;;;;;;;1.15;1.05;;;3.30;99.90;;;;;;5063731;28;20204;-71
2021/05/05 04:31:58;;;;;;;1.10;1.00;;;3.30;99.90;;;;;;5048547;28;20204;-71
2021/05/05 04:34:26;;;;;;;1.20;1.10;;;3.40;99.90;;;;;;5065634;28;20216;-72
2021/05/05 04:36:51;;;;;;;3.45;0.93;;;3.40;99.90;;;;;;5050860;28;20201;-69
2021/05/05 04:39:17;;;;;;;1.00;1.00;;;3.40;99.90;;;;;;5066976;28;20275;-70
2021/05/05 04:41:42;;;;;;;1.20;1.05;;;3.50;99.90;;;;;;5064311;28;20220;-71
2021/05/05 04:44:08;;;;;;;1.20;1.10;;;3.50;99.90;;;;;;5063442;28;20228;-69
2021/05/05 04:46:34;;;;;;;0.95;0.88;;;3.50;99.90;;;;;;5063772;28;20228;-70
2021/05/05 04:49:01;;;;;;;0.80;0.80;;;3.50;99.90;;;;;;5064893;28;20209;-71
2021/05/05 04:51:27;;;;;;;1.10;0.80;;;3.50;99.90;;;;;;5065657;28;20192;-70
2021/05/05 04:53:52;;;;;;;1.00;1.00;;;3.50;99.90;;;;;;5045399;28;20205;-71
2021/05/05 04:56:19;;;;;;;1.00;1.00;;;3.50;99.90;;;;;;5064449;28;20193;-71
2021/05/05 04:58:44;;;;;;;1.15;1.05;;;3.50;99.90;;;;;;5066388;28;20201;-70
2021/05/05 05:01:10;;;;;;;0.80;0.80;;;3.50;99.90;;;;;;5046240;28;20246;-70
2021/05/05 05:03:36;;;;;;;1.20;1.10;;;3.50;99.90;;;;;;5064448;28;20227;-70
2021/05/05 05:06:01;;;;;;;0.85;0.85;;;3.50;99.90;;;;;;5064606;28;20249;-70
2021/05/05 05:08:27;;;;;;;1.10;0.85;;;3.60;99.90;;;;;;5046876;28;20263;-72
2021/05/05 05:10:53;;;;;;;1.10;1.00;;;3.60;99.90;;;;;;5046419;28;20223;-70
2021/05/05 05:13:19;;;;;;;1.20;1.10;;;3.60;99.90;;;;;;5054642;28;20220;-70
2021/05/05 05:15:45;;;;;;;1.13;1.02;;;3.70;99.90;;;;;;5060891;28;20201;-70
2021/05/05 05:18:11;;;;;;;0.70;0.70;;;3.70;99.90;;;;;;5050266;28;20205;-71
2021/05/05 05:20:36;;;;;;;1.13;1.00;;;3.70;99.90;;;;;;5040188;28;20197;-71
2021/05/05 05:23:02;;;;;;;1.00;0.90;;;3.70;99.90;;;;;;5066251;28;20259;-71
2021/05/05 05:25:28;;;;;;;3.75;2.97;;;3.70;99.90;;;;;;5061219;28;20194;-70
2021/05/05 05:27:54;;;;;;;1.77;1.48;;;3.80;99.90;;;;;;5043569;28;20292;-70
2021/05/05 05:30:21;;;;;;;1.30;1.20;;;3.80;99.90;;;;;;5055309;28;20197;-70
2021/05/05 05:32:47;;;;;;;5.15;4.47;;;3.80;99.90;;;;;;5047324;28;20204;-70
2021/05/05 05:35:13;;;;;;;8.15;6.18;;;3.80;99.90;;;;;;5067147;28;20212;-71
2021/05/05 05:37:39;;;;;;;3.28;2.50;;;3.80;99.90;;;;;;5065056;28;20221;-71
2021/05/05 05:40:06;;;;;;;5.47;3.78;;;3.90;99.90;;;;;;5048675;28;20205;-70
2021/05/05 05:42:32;;;;;;;2.10;1.45;;;3.90;99.90;;;;;;5043619;28;20200;-71
2021/05/05 05:44:58;;;;;;;1.20;1.10;;;3.80;99.90;;;;;;5055262;28;20211;-70
2021/05/05 05:47:23;;;;;;;1.88;1.52;;;3.80;99.90;;;;;;5048710;28;20755;-71
2021/05/05 05:49:49;;;;;;;1.58;1.17;;;3.80;99.90;;;;;;5057324;28;20204;-70
2021/05/05 05:52:15;;;;;;;3.78;2.67;;;3.80;99.90;;;;;;5047595;28;20269;-70
2021/05/05 05:54:41;;;;;;;2.72;2.30;;;3.80;99.90;;;;;;5042413;28;20241;-70
2021/05/05 05:57:07;;;;;;;3.47;2.78;;;3.80;99.90;;;;;;5063946;28;20226;-70
2021/05/05 05:59:33;;;;;;;6.85;4.38;;;3.80;99.90;;;;;;5065034;28;20204;-70
2021/05/05 06:01:59;;;;;;;1.33;1.23;;;3.80;99.90;;;;;;5049988;28;20503;-71
2021/05/05 06:04:24;;;;;;;1.30;1.17;;;3.80;99.90;;;;;;5063526;28;20231;-71
2021/05/05 06:06:50;;;;;;;1.73;1.50;;;3.70;99.90;;;;;;5062258;28;20212;-70
2021/05/05 06:09:16;;;;;;;1.48;1.38;;;3.80;99.90;;;;;;5059434;28;20196;-70
2021/05/05 06:11:41;;;;;;;3.92;2.85;;;3.70;99.90;;;;;;5060045;28;20234;-71
2021/05/05 06:14:08;;;;;;;2.17;1.65;;;3.70;99.90;;;;;;5046523;28;20193;-70
2021/05/05 06:16:34;;;;;;;1.50;1.35;;;3.60;99.90;;;;;;5060483;28;20208;-70
2021/05/05 06:19:00;;;;;;;3.25;2.53;;;3.60;99.90;;;;;;5046446;28;20658;-71
2021/05/05 06:21:26;;;;;;;3.28;2.60;;;3.60;99.90;;;;;;5064440;28;20200;-70
2021/05/05 06:23:52;;;;;;;2.20;1.77;;;3.60;99.90;;;;;;5065296;28;20556;-71
2021/05/05 06:26:18;;;;;;;1.73;1.20;;;3.60;99.90;;;;;;5046015;28;20201;-70
2021/05/05 06:28:44;;;;;;;3.22;2.05;;;3.60;99.90;;;;;;5059112;28;20193;-71
2021/05/05 06:31:10;;;;;;;1.50;1.20;;;3.70;99.90;;;;;;5052576;28;20694;-69
2021/05/05 06:33:36;;;;;;;1.73;1.10;;;3.60;99.90;;;;;;5063067;28;20572;-70
2021/05/05 06:36:02;;;;;;;1.20;1.10;;;3.60;99.90;;;;;;5046912;28;20215;-69
2021/05/05 06:38:28;;;;;;;1.58;1.25;;;3.60;99.90;;;;;;5044578;28;20280;-70
2021/05/05 06:40:54;;;;;;;34.45;15.30;;;3.60;99.90;;;;;;5055358;28;20288;-70
2021/05/05 06:43:20;;;;;;;4.50;2.67;;;3.60;99.90;;;;;;5047817;28;20202;-71
2021/05/05 06:45:46;;;;;;;2.17;1.70;;;3.50;99.90;;;;;;5058075;28;20227;-70
2021/05/05 06:48:11;;;;;;;2.00;1.70;;;3.40;99.90;;;;;;5057429;28;20742;-70
2021/05/05 06:50:37;;;;;;;2.78;1.95;;;3.40;99.90;;;;;;5050616;28;20202;-69
2021/05/05 06:53:03;;;;;;;2.75;2.42;;;3.40;99.90;;;;;;5056326;28;20197;-69
2021/05/05 06:55:29;;;;;;;2.20;1.70;;;3.40;99.90;;;;;;5058888;28;20993;-70
2021/05/05 06:57:54;;;;;;;2.47;2.17;;;3.30;99.90;;;;;;5056668;28;20201;-72
2021/05/05 07:00:21;;;;;;;2.63;1.92;;;3.30;99.90;;;;;;5055370;28;20205;-69
2021/05/05 07:02:47;;;;;;;1.75;1.58;;;3.30;99.90;;;;;;5046520;28;20658;-70
2021/05/05 07:05:13;;;;;;;1.27;1.17;;;3.40;99.90;;;;;;5043699;28;20236;-71
2021/05/05 07:07:39;;;;;;;2.30;1.40;;;3.40;99.90;;;;;;5039859;28;20265;-70
2021/05/05 07:10:06;;;;;;;2.17;1.60;;;3.30;99.90;;;;;;5034113;28;20742;-71
2021/05/05 07:12:32;;;;;;;1.20;1.10;;;3.30;99.90;;;;;;5055283;28;21092;-70
2021/05/05 07:14:58;;;;;;;1.25;1.10;;;3.30;99.90;;;;;;5039158;28;20193;-70
2021/05/05 07:17:23;;;;;;;3.28;1.60;;;3.30;99.90;;;;;;5058328;28;20200;-71
2021/05/05 07:19:53;;;;;;;1.85;1.27;;;3.30;99.90;;;;;;5055362;28;20201;-69
2021/05/05 07:22:20;;;;;;;1.23;1.13;;;3.40;99.90;;;;;;5054502;28;20192;-71
2021/05/05 07:24:46;;;;;;;1.30;1.20;;;3.40;99.90;;;;;;5052297;28;20204;-70
2021/05/05 07:27:13;;;;;;;1.42;1.20;;;3.40;99.90;;;;;;5037424;28;20713;-70
2021/05/05 07:29:39;;;;;;;1.83;1.60;;;3.30;99.90;;;;;;5053840;28;20272;-70
2021/05/05 07:32:05;;;;;;;2.85;1.10;;;3.30;99.90;;;;;;5039157;28;20253;-70
2021/05/05 07:34:31;;;;;;;2.65;2.20;;;3.30;99.90;;;;;;5036929;28;20280;-70
2021/05/05 07:37:05;;;;;;;2.78;1.88;;;3.30;99.90;;;;;;5054703;28;20840;-72
2021/05/05 07:47:15;;;;;;;5.07;3.67;;;3.30;99.90;;;;;;5051135;28;20315;-70
2021/05/05 07:49:48;;;;;;;4.30;3.35;;;3.30;99.90;;;;;;5051833;28;20207;-70
2021/05/05 07:52:14;;;;;;;3.63;2.20;;;3.60;99.90;;;;;;5055115;28;20220;-71
2021/05/05 07:54:40;;;;;;;2.05;1.45;;;3.60;99.90;;;;;;5050261;28;20661;-70
2021/05/05 07:57:07;;;;;;;1.70;1.50;;;3.70;99.90;;;;;;5055894;28;20200;-69
2021/05/05 07:59:32;;;;;;;2.10;1.90;;;3.60;99.90;;;;;;5054077;28;20201;-69
2021/05/05 08:01:58;;;;;;;2.17;1.90;;;3.60;99.90;;;;;;5037376;28;20223;-70
2021/05/05 08:04:24;;;;;;;1.95;1.60;;;3.50;99.90;;;;;;5037703;28;20224;-70
2021/05/05 08:06:49;;;;;;;2.63;1.88;;;3.50;99.90;;;;;;5037149;28;20276;-70
2021/05/05 08:09:15;;;;;;;2.28;1.40;;;3.50;99.90;;;;;;5055988;28;20203;-69
2021/05/05 08:11:41;;;;;;;4.20;1.23;;;3.40;99.90;;;;;;5037625;28;20201;-69
2021/05/05 08:14:07;;;;;;;2.08;1.40;;;3.40;99.90;;;;;;5031403;28;20201;-70
2021/05/05 08:16:32;;;;;;;2.53;1.20;;;3.40;99.90;;;;;;5055185;28;20333;-69
2021/05/05 08:18:58;;;;;;;1.85;1.38;;;3.40;99.90;;;;;;5052067;28;20197;-70
2021/05/05 08:21:26;;;;;;;1.20;1.10;;;3.30;99.90;;;;;;5032045;28;20224;-69
2021/05/05 08:23:52;;;;;;;2.85;1.60;;;3.40;99.90;;;;;;5035573;28;20678;-70
2021/05/05 08:26:18;;;;;;;2.45;1.73;;;3.40;99.90;;;;;;5051188;28;20209;-69
2021/05/05 08:28:43;;;;;;;2.55;1.77;;;3.40;99.90;;;;;;5038403;28;20300;-70
2021/05/05 08:31:09;;;;;;;0.93;0.93;;;3.40;99.90;;;;;;5056972;28;20197;-69
2021/05/05 08:33:35;;;;;;;1.63;1.38;;;3.40;99.90;;;;;;5056821;28;20762;-71
2021/05/05 08:36:01;;;;;;;5.47;2.05;;;3.40;99.90;;;;;;5063356;28;20558;-69
2021/05/05 08:38:27;;;;;;;1.67;1.45;;;3.40;99.90;;;;;;5061427;28;20220;-69
2021/05/05 08:40:53;;;;;;;5.32;2.10;;;3.40;99.90;;;;;;5059797;28;20197;-71
2021/05/05 08:43:18;;;;;;;2.50;1.73;;;3.40;99.90;;;;;;5060876;28;22167;-70
2021/05/05 08:45:45;;;;;;;2.08;1.60;;;3.40;99.90;;;;;;5058847;28;20295;-70
2021/05/05 08:48:11;;;;;;;1.40;1.30;;;3.50;99.90;;;;;;5060470;28;20188;-71
2021/05/05 08:50:39;;;;;;;2.10;1.75;;;3.40;99.90;;;;;;5061571;28;20199;-69
2021/05/05 08:53:06;;;;;;;2.60;1.52;;;3.30;99.90;;;;;;5059653;28;20591;-71
2021/05/05 08:55:33;;;;;;;2.45;2.15;;;3.40;99.90;;;;;;5060318;28;20189;-69
2021/05/05 08:58:00;;;;;;;1.45;1.30;;;3.40;99.90;;;;;;5062526;28;20207;-69
2021/05/05 09:00:32;;;;;;;2.00;1.80;;;3.30;99.90;;;;;;5060493;28;20193;-69
2021/05/05 09:02:58;;;;;;;1.38;1.27;;;3.40;99.90;;;;;;5061952;28;20637;-69
2021/05/05 09:05:25;;;;;;;1.67;1.50;;;3.50;99.90;;;;;;5060204;28;20221;-70
2021/05/05 09:07:51;;;;;;;3.67;1.40;;;3.50;99.90;;;;;;5065293;28;20223;-69
2021/05/05 09:10:23;;;;;;;2.53;1.75;;;3.60;99.90;;;;;;5060315;28;20185;-69
2021/05/05 09:12:50;;;;;;;1.77;1.50;;;3.60;99.90;;;;;;5064451;28;20197;-69
2021/05/05 09:15:19;;;;;;;2.05;1.85;;;3.60;99.90;;;;;;5041690;28;20288;-70
2021/05/05 09:17:49;;;;;;;1.88;1.50;;;3.70;99.90;;;;;;5058353;28;20554;-71
2021/05/05 09:20:25;;;;;;;2.95;1.80;;;3.70;99.90;;;;;;5058169;28;20274;-70
2021/05/05 09:23:02;;;;;;;1.90;1.67;;;3.70;99.90;;;;;;5059040;28;20206;-70
2021/05/05 09:25:31;;;;;;;3.10;1.50;;;3.80;99.90;;;;;;5047484;28;20220;-71
2021/05/05 09:28:12;;;;;;;1.75;1.60;;;3.80;99.90;;;;;;5058837;28;20200;-71
2021/05/05 09:30:40;;;;;;;2.58;1.40;;;3.80;99.90;;;;;;5041241;28;21099;-70
2021/05/05 09:33:07;;;;;;;2.33;1.50;;;3.80;99.90;;;;;;5057222;28;20593;-71
2021/05/05 09:35:35;;;;;;;1.65;1.33;;;3.90;99.90;;;;;;5060488;28;21018;-71
2021/05/05 09:38:04;;;;;;;1.40;1.27;;;3.90;99.90;;;;;;5057193;28;20201;-70
2021/05/05 09:40:29;;;;;;;1.83;1.58;;;3.90;99.90;;;;;;5055422;28;20193;-69
2021/05/05 09:42:55;;;;;;;1.67;1.38;;;3.90;99.90;;;;;;5041099;28;20262;-70
2021/05/05 09:45:30;;;;;;;2.30;1.60;;;3.90;99.90;;;;;;5057311;28;20200;-69
2021/05/05 09:47:58;;;;;;;1.92;1.45;;;4.00;99.90;;;;;;5048747;28;20704;-71
2021/05/05 09:50:32;;;;;;;1.63;1.40;;;4.00;99.90;;;;;;5040595;28;20219;-70
2021/05/05 09:53:31;;;;;;;2.20;1.30;;;4.10;99.90;;;;;;5058007;28;20196;-70
2021/05/05 09:56:03;;;;;;;4.60;2.55;;;4.10;99.90;;;;;;5059631;28;20193;-69
2021/05/05 09:58:30;;;;;;;2.97;1.55;;;4.20;99.90;;;;;;5060358;28;20220;-70
2021/05/05 10:01:08;;;;;;;2.22;1.40;;;4.20;99.90;;;;;;5033306;28;20245;-70
2021/05/05 10:03:40;;;;;;;2.60;1.33;;;4.20;99.90;;;;;;5048731;28;20193;-70
2021/05/05 10:06:25;;;;;;;1.48;1.33;;;4.10;99.90;;;;;;5033740;28;20676;-71
2021/05/05 10:08:56;;;;;;;1.38;1.20;;;4.10;99.90;;;;;;5048830;28;20687;-70
2021/05/05 10:11:30;;;;;;;2.38;1.70;;;4.20;99.90;;;;;;5040548;28;20197;-70
2021/05/05 10:14:12;;;;;;;1.60;1.30;;;4.30;99.90;;;;;;5062867;28;20261;-71
2021/05/05 10:16:42;;;;;;;2.35;1.60;;;4.30;99.90;;;;;;5053143;28;20197;-70
2021/05/05 10:19:12;;;;;;;2.97;2.03;;;4.30;99.90;;;;;;5033191;28;20206;-70
2021/05/05 10:21:53;;;;;;;1.50;1.27;;;4.30;99.90;;;;;;5059231;28;20201;-70
2021/05/05 10:24:20;;;;;;;1.25;1.15;;;4.30;99.90;;;;;;5059357;28;20292;-71
2021/05/05 10:26:47;;;;;;;1.80;1.48;;;4.30;99.90;;;;;;5052863;28;20557;-69
2021/05/05 10:29:14;;;;;;;1.73;1.50;;;4.30;99.90;;;;;;5045979;28;20204;-71
2021/05/05 10:31:40;;;;;;;1.95;1.60;;;4.30;99.90;;;;;;5060601;28;20247;-69
2021/05/05 10:34:25;;;;;;;4.10;1.80;;;4.30;99.90;;;;;;5060249;28;20193;-70
2021/05/05 10:36:54;;;;;;;1.58;1.42;;;4.40;99.90;;;;;;5060483;28;20205;-69
2021/05/05 10:39:25;;;;;;;1.92;1.60;;;4.40;99.90;;;;;;5060726;28;20212;-71
2021/05/05 10:42:03;;;;;;;1.85;1.60;;;4.40;99.90;;;;;;5062606;28;20201;-70
2021/05/05 10:44:55;;;;;;;3.50;1.45;;;4.50;99.90;;;;;;5036980;28;20196;-71
2021/05/05 10:47:34;;;;;;;1.85;1.50;;;4.50;99.90;;;;;;5041629;28;20205;-71
2021/05/05 10:50:00;;;;;;;1.67;1.20;;;4.50;99.90;;;;;;5059835;28;20283;-71
2021/05/05 10:52:27;;;;;;;1.83;1.50;;;4.50;99.90;;;;;;5042587;28;20573;-71
2021/05/05 10:54:54;;;;;;;1.48;1.23;;;4.50;99.90;;;;;;5052018;28;20193;-71
2021/05/05 10:57:22;;;;;;;2.00;1.65;;;4.50;99.90;;;;;;5035958;28;20332;-71
2021/05/05 11:00:00;;;;;;;1.52;1.30;;;4.50;99.90;;;;;;5035215;28;20197;-71
2021/05/05 11:02:38;;;;;;;2.53;2.10;;;4.50;99.90;;;;;;5055537;28;20253;-71
2021/05/05 11:05:09;;;;;;;2.92;1.83;;;4.70;99.90;;;;;;5051666;28;20250;-71
2021/05/05 11:08:05;;;;;;;2.00;1.40;;;4.70;99.90;;;;;;5058797;28;20205;-71
2021/05/05 11:10:30;;;;;;;1.73;1.30;;;4.70;99.90;;;;;;5035777;28;20211;-71
2021/05/05 11:13:32;;;;;;;2.20;1.20;;;4.80;99.90;;;;;;5055419;28;20691;-71
2021/05/05 11:15:58;;;;;;;1.35;1.20;;;4.80;99.90;;;;;;4973756;28;20213;-70
2021/05/05 11:18:30;;;;;;;1.63;1.30;;;4.90;99.90;;;;;;4973826;28;20226;-71
2021/05/05 11:21:00;;;;;;;1.20;1.10;;;5.00;99.90;;;;;;4974840;28;20210;-71
2021/05/05 11:23:45;;;;;;;0.88;0.88;;;5.20;99.90;;;;;;4979487;28;20271;-72
2021/05/05 11:26:23;;;;;;;1.23;1.10;;;5.40;99.90;;;;;;4980918;28;20690;-71
2021/05/05 11:29:10;;;;;;;1.38;1.17;;;5.40;99.90;;;;;;4958810;28;20214;-71
2021/05/05 11:31:47;;;;;;;2.20;1.50;;;5.40;99.90;;;;;;4959592;28;20330;-71
2021/05/05 11:37:01;;;;;;;2.22;1.70;;;5.50;99.90;;;;;;4975248;28;20604;-71
2021/05/05 11:39:36;;;;;;;2.17;1.40;;;5.50;99.90;;;;;;4977168;28;20203;-73
2021/05/05 11:42:13;;;;;;;1.90;1.30;;;5.50;99.90;;;;;;4962096;28;20203;-71
2021/05/05 11:44:45;;;;;;;1.50;1.25;;;5.60;99.90;;;;;;4957684;28;20996;-72
2021/05/05 11:47:17;;;;;;;2.35;1.30;;;5.40;99.90;;;;;;4976118;28;20222;-71
2021/05/05 11:49:49;;;;;;;1.00;0.90;;;5.30;99.90;;;;;;4999805;28;20947;-72
2021/05/05 11:52:28;;;;;;;1.08;1.00;;;5.40;99.90;;;;;;5059094;28;20243;-72
2021/05/05 11:55:03;;;;;;;1.13;1.00;;;5.40;99.90;;;;;;5048344;28;20201;-72
2021/05/05 11:57:31;;;;;;;1.10;0.98;;;5.50;99.90;;;;;;5050816;28;20225;-71
2021/05/05 12:00:25;;;;;;;1.00;1.00;;;5.30;99.90;;;;;;5048422;28;20204;-72
2021/05/05 12:02:58;;;;;;;0.90;0.90;;;5.40;99.90;;;;;;5057093;28;20266;-72
2021/05/05 12:05:37;;;;;;;1.10;1.00;;;5.50;99.90;;;;;;5052847;28;20229;-72
2021/05/05 12:08:18;;;;;;;1.17;1.00;;;5.50;99.90;;;;;;5060221;28;20374;-73
2021/05/05 12:10:45;;;;;;;1.40;1.30;;;5.60;99.90;;;;;;5056765;28;20233;-72
2021/05/05 12:13:15;;;;;;;1.38;1.20;;;5.60;99.90;;;;;;5054588;28;20608;-72
2021/05/05 12:16:25;;;;;;;1.10;1.00;;;5.70;99.90;;;;;;5058908;28;20679;-72
2021/05/05 12:18:46;;;;;;;1.10;1.00;;;5.80;99.90;;;;;;5051473;28;20631;-71
2021/05/05 12:21:18;;;;;;;1.55;1.08;;;6.00;99.90;;;;;;5058254;28;20216;-72
2021/05/05 12:23:49;;;;;;;1.75;1.10;;;6.00;99.90;;;;;;5065652;28;20184;-72
2021/05/05 12:26:21;;;;;;;0.93;0.90;;;5.90;99.90;;;;;;5044307;28;20204;-73
2021/05/05 12:28:49;;;;;;;5.30;1.00;;;5.90;99.90;;;;;;5058310;28;20197;-71
2021/05/05 12:31:17;;;;;;;1.10;1.00;;;6.00;99.90;;;;;;5057643;28;20892;-72
2021/05/05 12:33:46;;;;;;;1.50;1.20;;;5.90;99.90;;;;;;5053450;28;20196;-72
2021/05/05 12:36:18;;;;;;;1.20;1.10;;;6.00;99.90;;;;;;5042766;28;20339;-73
2021/05/05 12:38:45;;;;;;;1.55;1.30;;;5.90;99.90;;;;;;5059294;28;20204;-71
2021/05/05 12:41:15;;;;;;;1.45;1.20;;;5.80;99.90;;;;;;5057477;28;20193;-73
2021/05/05 12:43:45;;;;;;;1.70;1.30;;;5.90;99.90;;;;;;5059211;28;20235;-72
2021/05/05 12:46:27;;;;;;;1.38;1.10;;;5.90;99.90;;;;;;5052656;28;20955;-72
2021/05/05 12:48:54;;;;;;;2.35;1.55;;;5.90;99.90;;;;;;5060478;28;20283;-72
2021/05/05 12:51:24;;;;;;;1.05;0.95;;;6.10;99.90;;;;;;5036617;28;20204;-73
2021/05/05 12:54:02;;;;;;;0.95;0.95;;;6.10;99.90;;;;;;5060570;28;20220;-72
2021/05/05 12:56:47;;;;;;;1.15;1.02;;;5.90;99.90;;;;;;5052356;28;20291;-72
2021/05/05 12:59:17;;;;;;;1.42;1.13;;;5.90;99.90;;;;;;5060569;28;20511;-72
2021/05/05 13:01:42;;;;;;;1.00;0.90;;;5.90;99.90;;;;;;5050481;28;20247;-72
2021/05/05 13:04:09;;;;;;;1.35;1.15;;;6.00;99.90;;;;;;5044724;28;21011;-72
2021/05/05 13:06:43;;;;;;;1.20;1.10;;;6.10;99.90;;;;;;5039807;28;20240;-71
2021/05/05 13:09:14;;;;;;;2.22;1.20;;;6.10;99.90;;;;;;5058069;28;20845;-72
2021/05/05 13:11:57;;;;;;;0.90;0.90;;;6.20;99.90;;;;;;5061079;28;20193;-72
2021/05/05 13:14:53;;;;;;;2.05;0.90;;;6.20;99.90;;;;;;5062746;28;20283;-73